Startpagina
METAR-TAF:

METAR-TAF

Vliegvelden :

Luchthaven El Salvador

El Salvador, El Salvador

breedte: 13-26N, lengte: 089-03W, hoogte: 25 m

Actueel weer

Dit bericht is 1 uur en het 6 minuten geleden gemaakt, om 19:50 UTC
Wind 9 kt uit het zuidzuidwesten, variërend tussen het zuiden en het westzuidwesten
Temperatuur 31°C
Vochtigheid 55%
Druk 1011 hPa
Zicht 10 km of meer
Weinig wolken op 4700 ft

METAR: MSLP 281950Z 21009KT 180V250 9999 FEW047 31/21 Q1010 A2985 NOSIG

Tijdstip: 14:56 (20:56 UTC)

Verwachting

Dit bericht is 5 uur en het 31 minuten geleden gemaakt, om 15:25 UTC
Verwachting geldig van 28 om 18 UTC tot 29 om 18 UTC
Wind 8 kt uit het zuidwesten
Zicht 10 km of meer
geen wolken onder 1500 m en geen cumulonimbus
Van 29 om 0300 UTC
Wind 3 kt uit het noordoosten

TAF: MSLP 281525Z 2818/2918 22008KT 9999 FEW047 TX33/2818Z TN22/2912Z FN290000 CAVOK FM290300 05003KT

Waarnemingen en weersverwachtingen van meer dan 4000 vliegvelden (METAR en TAF).

De beschikbare stations zijn de gele en rode punten op de kaart.

Ga met uw muis naar het station om de naam te zien.

Klik dan om waarnemingen en weersverwachtingen te zien.

kaart wijzigen: klik op de groene knoppen met een zwart kruis om in te zoomen, op de groene knop met een streepje om uit te zoomen of op de groene pijlen voor aangrenzende kaarten.


METAR-TAF: